Time;durP1;ratioP1;P1;durP2;ratioP2;P2;SDS_P1;SDS_P2;PMS_P1;PMS_P2;Temp;Humidity;BMP_temperature;BMP_pressure;BME280_temperature;BME280_humidity;BME280_pressure;Samples;Min_cycle;Max_cycle;Signal;HPM_P1;HPM_P2
2023/02/05 00:00:29;;;;;;;21.12;9.30;;;;;;;;;;1723063;83;27279;-44
2023/02/05 00:02:57;;;;;;;18.52;8.85;;;;;;;;;;1723230;83;25411;-45
2023/02/05 00:05:24;;;;;;;21.10;8.48;;;;;;;;;;1723286;83;25510;-49
2023/02/05 00:07:51;;;;;;;15.18;7.45;;;;;;;;;;1723263;83;25458;-46
2023/02/05 00:10:18;;;;;;;17.95;7.75;;;;;;;;;;1723345;83;25503;-45
2023/02/05 00:12:45;;;;;;;19.10;7.37;;;;;;;;;;1723160;83;27177;-45
2023/02/05 00:15:12;;;;;;;17.65;8.25;;;;;;;;;;1723106;83;25379;-45
2023/02/05 00:17:39;;;;;;;18.75;6.37;;;;;;;;;;1723194;83;25555;-45
2023/02/05 00:20:07;;;;;;;17.45;7.03;;;;;;;;;;1723116;83;25514;-46
2023/02/05 00:22:34;;;;;;;18.80;7.03;;;;;;;;;;1723416;83;25367;-47
2023/02/05 00:25:01;;;;;;;20.50;10.23;;;;;;;;;;1723134;83;27272;-45
2023/02/05 00:27:28;;;;;;;56.35;51.25;;;;;;;;;;1722999;83;25449;-45
2023/02/05 00:29:55;;;;;;;85.17;78.40;;;;;;;;;;1723120;83;25303;-46
2023/02/05 00:32:22;;;;;;;78.60;72.12;;;;;;;;;;1723032;83;25306;-46
2023/02/05 00:34:49;;;;;;;85.77;78.80;;;;;;;;;;1723151;83;25302;-46
2023/02/05 00:37:16;;;;;;;23.73;18.07;;;;;;;;;;1723093;83;27276;-46
2023/02/05 00:39:43;;;;;;;74.35;68.15;;;;;;;;;;1723051;83;25555;-48
2023/02/05 00:42:10;;;;;;;17.73;9.50;;;;;;;;;;1723083;83;25500;-49
2023/02/05 00:44:37;;;;;;;59.95;54.53;;;;;;;;;;1723071;83;25334;-47
2023/02/05 00:48:04;;;;;;;14.95;7.40;;;;;;;-3.97;77.40;102050.75;1866962;76;32895;-44
2023/02/05 00:50:32;;;;;;;13.18;5.83;;;;;;;-4.04;77.28;102049.28;1824400;78;25567;-45
2023/02/05 00:52:59;;;;;;;15.98;6.67;;;;;;;-4.03;77.30;102050.94;1803916;78;27429;-45
2023/02/05 00:55:26;;;;;;;13.55;6.17;;;;;;;-4.01;77.54;102052.09;1824390;78;25765;-47
2023/02/05 00:57:52;;;;;;;14.98;6.28;;;;;;;-4.02;77.39;102049.96;1824486;78;25361;-48
2023/02/05 01:00:19;;;;;;;15.60;6.65;;;;;;;-3.99;77.33;102060.17;1824459;78;25522;-47
2023/02/05 01:02:46;;;;;;;14.53;6.50;;;;;;;-3.97;77.33;102064.82;1824552;78;25608;-46
2023/02/05 01:05:13;;;;;;;12.35;6.03;;;;;;;-3.97;77.19;102063.50;1824505;78;28560;-45
2023/02/05 01:07:40;;;;;;;18.40;6.00;;;;;;;-3.96;77.11;102064.31;1824343;78;25428;-44
2023/02/05 01:10:08;;;;;;;13.15;6.47;;;;;;;-3.95;77.20;102069.91;1824453;78;25554;-47
2023/02/05 01:12:35;;;;;;;13.03;6.40;;;;;;;-3.93;77.15;102069.27;1824374;78;25827;-44
2023/02/05 01:15:05;;;;;;;15.03;7.17;;;;;;;-3.92;77.21;102059.00;1824488;78;25496;-44
2023/02/05 01:17:31;;;;;;;13.50;6.05;;;;;;;-3.90;77.22;102057.01;1824431;78;28213;-46
2023/02/05 01:19:58;;;;;;;16.73;6.65;;;;;;;-3.90;77.19;102054.87;1824307;78;25609;-47
2023/02/05 01:22:24;;;;;;;13.95;6.53;;;;;;;-3.89;77.17;102051.25;1824526;78;25352;-44
2023/02/05 01:24:51;;;;;;;17.73;6.78;;;;;;;-3.87;77.14;102054.03;1824361;78;25356;-47
2023/02/05 01:27:17;;;;;;;13.13;6.65;;;;;;;-3.83;77.21;102058.48;1824445;78;25424;-44
2023/02/05 01:29:44;;;;;;;14.87;7.08;;;;;;;-3.83;77.23;102054.52;1824399;78;27423;-45
2023/02/05 01:32:10;;;;;;;18.02;7.75;;;;;;;-3.82;77.06;102051.70;1824317;78;25353;-44
2023/02/05 01:34:37;;;;;;;16.75;8.40;;;;;;;-3.82;77.06;102041.62;1824422;78;25378;-44
2023/02/05 01:37:03;;;;;;;14.58;6.42;;;;;;;-3.84;77.03;102041.80;1824330;78;25432;-45
2023/02/05 01:39:30;;;;;;;17.15;7.05;;;;;;;-3.83;77.05;102045.26;1824486;78;25422;-44
2023/02/05 01:41:56;;;;;;;23.02;8.68;;;;;;;-3.82;77.08;102044.27;1824417;78;28085;-44
2023/02/05 01:44:27;;;;;;;18.87;8.18;;;;;;;-3.85;77.07;102039.32;1824310;78;25397;-45
2023/02/05 01:46:55;;;;;;;24.75;9.48;;;;;;;-3.83;77.24;102046.11;1827011;77;25419;-44
2023/02/05 01:49:30;;;;;;;20.57;8.30;;;;;;;-3.82;77.22;102050.37;1830457;77;25416;-48
2023/02/05 01:52:02;;;;;;;19.15;8.90;;;;;;;-3.81;77.16;102043.29;1829982;77;25577;-47
2023/02/05 01:54:30;;;;;;;18.25;8.48;;;;;;;-3.83;77.17;102038.64;1830488;77;27495;-45
2023/02/05 01:57:08;;;;;;;18.20;8.35;;;;;;;-3.83;77.15;102036.00;1830572;77;25539;-44
2023/02/05 01:59:38;;;;;;;15.28;8.18;;;;;;;-3.85;77.17;102034.84;1827662;77;25667;-44
2023/02/05 02:02:06;;;;;;;15.05;7.72;;;;;;;-3.85;77.08;102034.03;1829836;78;25337;-46
2023/02/05 02:04:40;;;;;;;20.55;9.20;;;;;;;-3.83;77.22;102035.53;1829941;77;25436;-44
2023/02/05 02:07:11;;;;;;;19.65;7.42;;;;;;;-3.82;77.27;102032.38;1829865;78;27594;-44
2023/02/05 02:09:41;;;;;;;13.35;6.65;;;;;;;-3.82;77.28;102031.88;1828349;77;25444;-44
2023/02/05 02:12:11;;;;;;;15.70;7.25;;;;;;;-3.83;77.30;102029.39;1829911;77;25500;-44
2023/02/05 02:14:42;;;;;;;12.68;6.92;;;;;;;-3.83;77.20;102034.20;1829902;77;25600;-44
2023/02/05 02:17:12;;;;;;;15.03;5.90;;;;;;;-3.82;77.22;102035.02;1830010;78;25409;-43
2023/02/05 02:20:05;;;;;;;14.75;6.70;;;;;;;-3.83;77.30;102035.53;1813677;78;27274;-44
2023/02/05 02:23:02;;;;;;;17.02;6.00;;;;;;;-3.84;77.23;102040.48;1817135;76;25549;-44
2023/02/05 02:25:49;;;;;;;16.48;6.83;;;;;;;-3.85;77.25;102038.81;1779536;79;25440;-44
2023/02/05 02:28:28;;;;;;;14.18;5.95;;;;;;;-3.86;77.26;102045.62;1766660;81;27435;-45
2023/02/05 02:31:09;;;;;;;14.87;6.65;;;;;;;-3.87;77.37;102044.78;1769438;79;25611;-44
2023/02/05 02:33:53;;;;;;;14.87;6.30;;;;;;;-3.87;77.40;102042.13;1766521;81;27459;-45
2023/02/05 02:36:36;;;;;;;11.85;5.85;;;;;;;-3.87;77.34;102044.78;1803245;79;25695;-47
2023/02/05 02:39:27;;;;;;;16.57;6.45;;;;;;;-3.88;77.45;102051.55;1767134;81;25477;-45
2023/02/05 02:41:59;;;;;;;16.90;6.00;;;;;;;-3.89;77.46;102055.21;1800413;79;25561;-44
2023/02/05 02:44:54;;;;;;;11.83;6.05;;;;;;;-3.89;77.52;102053.38;1771303;79;25615;-44
2023/02/05 02:47:25;;;;;;;16.30;5.65;;;;;;;-3.90;77.45;102055.69;1765783;81;27463;-44
2023/02/05 02:50:05;;;;;;;12.03;6.15;;;;;;;-3.90;77.43;102061.48;1800236;79;25361;-44
2023/02/05 02:52:37;;;;;;;12.37;6.12;;;;;;;-3.91;77.51;102064.63;1803572;79;25342;-44
2023/02/05 02:55:08;;;;;;;14.03;5.87;;;;;;;-3.91;77.53;102067.78;1767047;81;25491;-44
2023/02/05 02:57:38;;;;;;;10.95;5.50;;;;;;;-3.91;77.44;102072.56;1800380;79;25568;-44
2023/02/05 03:00:15;;;;;;;11.55;5.25;;;;;;;-3.92;77.44;102076.19;1767094;81;27515;-44
2023/02/05 03:02:44;;;;;;;13.30;5.65;;;;;;;-3.93;77.38;102073.23;1801513;79;25396;-45
2023/02/05 03:05:18;;;;;;;14.30;6.03;;;;;;;-3.91;77.50;102078.36;1800341;79;25405;-46
2023/02/05 03:07:55;;;;;;;13.28;5.17;;;;;;;-3.95;77.38;102073.41;1803348;79;25365;-46
2023/02/05 03:10:43;;;;;;;15.23;6.08;;;;;;;-3.94;77.45;102079.50;1793986;79;25412;-46
2023/02/05 03:13:11;;;;;;;12.90;5.67;;;;;;;-3.92;77.52;102088.09;1767151;81;27526;-48
2023/02/05 03:15:41;;;;;;;14.98;5.72;;;;;;;-3.92;77.53;102084.13;1766969;81;25758;-49
2023/02/05 03:18:09;;;;;;;9.98;4.95;;;;;;;-3.89;77.68;102080.33;1803159;78;25453;-49
2023/02/05 03:20:58;;;;;;;10.40;5.25;;;;;;;-3.89;77.71;102080.33;1767073;81;25681;-44
2023/02/05 03:23:28;;;;;;;10.68;5.33;;;;;;;-3.88;77.66;102080.16;1796988;79;25385;-45
2023/02/05 03:25:55;;;;;;;14.13;5.95;;;;;;;-3.86;77.80;102072.06;1763027;81;27477;-45
2023/02/05 03:28:22;;;;;;;12.30;5.70;;;;;;;-3.83;77.74;102083.12;1762867;81;25399;-45
2023/02/05 03:31:11;;;;;;;12.35;5.10;;;;;;;-3.81;77.82;102079.81;1762968;81;25389;-45
2023/02/05 03:34:09;;;;;;;11.73;5.62;;;;;;;-3.79;77.86;102077.00;1796018;79;25376;-45
2023/02/05 03:37:19;;;;;;;10.70;5.00;;;;;;;-3.78;77.68;102082.59;1795613;79;25385;-46
2023/02/05 03:40:23;;;;;;;11.18;4.83;;;;;;;-3.77;77.55;102078.97;1762888;81;27553;-46
2023/02/05 03:43:35;;;;;;;11.73;5.70;;;;;;;-3.76;77.60;102067.41;1796102;79;25546;-47
2023/02/05 03:46:21;;;;;;;9.88;5.08;;;;;;;-3.77;77.49;102069.71;1796044;79;25589;-44
2023/02/05 03:49:05;;;;;;;13.15;5.80;;;;;;;-3.78;77.50;102071.54;1818161;78;27458;-44
2023/02/05 03:51:51;;;;;;;9.20;5.17;;;;;;;-3.79;77.42;102062.45;1778820;80;25506;-45
2023/02/05 03:54:28;;;;;;;12.33;5.55;;;;;;;-3.81;77.43;102066.59;1709416;83;28093;-44
2023/02/05 03:57:00;;;;;;;10.63;5.40;;;;;;;-3.80;77.61;102068.25;1709446;83;25644;-45
2023/02/05 03:59:27;;;;;;;11.00;5.20;;;;;;;-3.80;77.67;102066.92;1709472;83;25437;-44
2023/02/05 04:01:55;;;;;;;12.58;4.75;;;;;;;-3.79;77.49;102062.45;1709448;83;25599;-44
2023/02/05 04:04:21;;;;;;;13.35;5.20;;;;;;;-3.79;77.41;102063.77;1709538;83;25479;-44
2023/02/05 04:06:51;;;;;;;11.53;5.25;;;;;;;-3.79;77.51;102065.09;1709459;83;28181;-44
2023/02/05 04:09:17;;;;;;;9.78;4.72;;;;;;;-3.79;77.58;102067.74;1709488;83;25592;-46
2023/02/05 04:11:43;;;;;;;12.58;6.03;;;;;;;-3.76;77.71;102075.34;1709478;83;25498;-44
2023/02/05 04:14:09;;;;;;;12.60;5.60;;;;;;;-3.76;77.62;102076.66;1709455;83;25451;-44
2023/02/05 04:16:36;;;;;;;10.70;5.20;;;;;;;-3.76;77.49;102080.63;1685687;83;25663;-45
2023/02/05 04:19:02;;;;;;;11.85;5.60;;;;;;;-3.78;77.49;102072.86;1709470;83;28134;-48
2023/02/05 04:21:29;;;;;;;13.90;5.28;;;;;;;-3.78;77.40;102072.86;1709357;83;25441;-44
2023/02/05 04:23:55;;;;;;;11.00;5.03;;;;;;;-3.79;77.52;102065.09;1711970;83;25632;-45
2023/02/05 04:26:21;;;;;;;11.68;5.05;;;;;;;-3.80;77.48;102066.92;1689895;83;25664;-46
2023/02/05 04:28:48;;;;;;;10.90;4.75;;;;;;;-3.79;77.42;102066.42;1724346;83;25532;-44
2023/02/05 04:31:14;;;;;;;10.32;5.20;;;;;;;-3.80;77.51;102072.69;1748083;80;27475;-46
2023/02/05 04:33:41;;;;;;;11.68;5.17;;;;;;;-3.79;77.50;102073.84;1792296;80;25599;-45
2023/02/05 04:36:09;;;;;;;11.10;4.95;;;;;;;-3.80;77.55;102076.66;1792392;80;25438;-48
2023/02/05 04:38:35;;;;;;;11.65;5.53;;;;;;;-3.80;77.64;102080.63;1792346;80;25444;-45
2023/02/05 04:41:02;;;;;;;11.97;5.10;;;;;;;-3.80;77.64;102085.44;1792421;80;25633;-44
2023/02/05 04:43:28;;;;;;;10.60;5.62;;;;;;;-3.80;77.65;102085.44;1792358;80;27555;-44
2023/02/05 04:45:54;;;;;;;11.22;5.20;;;;;;;-3.80;77.67;102089.88;1792266;80;25549;-44
2023/02/05 04:48:20;;;;;;;12.90;5.90;;;;;;;-3.82;77.75;102089.23;1792336;80;25437;-45
2023/02/05 04:50:47;;;;;;;9.10;5.50;;;;;;;-3.83;77.78;102081.80;1792358;80;25416;-45
2023/02/05 04:53:13;;;;;;;10.53;5.12;;;;;;;-3.81;77.93;102094.35;1792401;80;25528;-48
2023/02/05 04:55:40;;;;;;;13.68;5.37;;;;;;;-3.81;77.84;102095.67;1792390;80;27475;-45
2023/02/05 04:58:06;;;;;;;8.88;4.78;;;;;;;-3.81;77.91;102095.67;1792255;80;25514;-44
2023/02/05 05:00:32;;;;;;;13.95;5.75;;;;;;;-3.81;77.95;102091.70;1792395;80;25415;-45
2023/02/05 05:02:58;;;;;;;12.53;5.85;;;;;;;-3.80;78.08;102089.88;1792343;80;25471;-45
2023/02/05 05:05:24;;;;;;;12.98;6.05;;;;;;;-3.81;77.91;102089.06;1792473;80;25388;-44
2023/02/05 05:07:51;;;;;;;8.45;4.58;;;;;;;-3.82;77.92;102081.30;1765645;80;28515;-43
2023/02/05 05:10:17;;;;;;;9.78;5.37;;;;;;;-3.83;77.96;102080.95;1792280;80;25383;-44
2023/02/05 05:12:43;;;;;;;12.23;5.37;;;;;;;-3.84;77.90;102083.29;1792436;80;25595;-45
2023/02/05 05:15:10;;;;;;;13.60;6.28;;;;;;;-3.86;77.99;102082.13;1765650;80;27624;-45
2023/02/05 05:17:36;;;;;;;10.95;5.10;;;;;;;-3.84;78.09;102092.04;1792346;80;25422;-45
2023/02/05 05:20:04;;;;;;;14.47;6.28;;;;;;;-3.84;78.09;102085.94;1792358;80;27437;-46
2023/02/05 05:22:30;;;;;;;9.15;5.25;;;;;;;-3.84;78.05;102093.36;1792276;80;25583;-45
2023/02/05 05:24:56;;;;;;;10.20;5.22;;;;;;;-3.85;78.00;102089.56;1796317;78;25591;-46
2023/02/05 05:27:23;;;;;;;9.38;4.83;;;;;;;-3.86;78.01;102100.64;1831103;78;25560;-45
2023/02/05 05:29:49;;;;;;;11.80;5.87;;;;;;;-3.87;77.96;102104.27;1831250;78;25571;-45
2023/02/05 05:32:15;;;;;;;13.78;6.22;;;;;;;-3.88;77.95;102107.08;1831139;78;29675;-43
2023/02/05 05:34:42;;;;;;;12.53;5.30;;;;;;;-3.89;78.06;102108.09;1831332;78;27368;-44
2023/02/05 05:37:08;;;;;;;13.78;5.22;;;;;;;-3.91;78.07;102105.61;1831432;78;25585;-43
2023/02/05 05:45:04;;;;;;;11.60;5.30;;;;;;;-3.95;78.18;102103.80;1831396;78;27501;-45
2023/02/05 05:47:31;;;;;;;11.43;5.03;;;;;;;-3.96;78.08;102107.43;1831222;78;25532;-45
2023/02/05 05:49:57;;;;;;;10.50;4.58;;;;;;;-3.98;78.15;102109.92;1831313;78;25366;-45
2023/02/05 05:52:23;;;;;;;10.60;5.12;;;;;;;-3.99;78.26;102110.41;1831295;78;26193;-45
2023/02/05 05:54:49;;;;;;;13.28;5.40;;;;;;;-3.98;78.29;102120.00;1831351;78;25617;-44
2023/02/05 05:57:16;;;;;;;12.35;5.47;;;;;;;-3.99;78.32;102122.30;1831435;78;27581;-44
2023/02/05 05:59:42;;;;;;;14.35;6.22;;;;;;;-3.98;78.39;102123.14;1831337;78;25575;-45
2023/02/05 06:02:08;;;;;;;12.13;5.28;;;;;;;-3.97;78.41;102126.95;1831435;78;25516;-46
2023/02/05 06:04:34;;;;;;;12.90;6.37;;;;;;;-3.98;78.44;102128.44;1831251;78;25492;-45
2023/02/05 06:07:01;;;;;;;13.25;5.78;;;;;;;-3.98;78.40;102135.86;1831298;78;25590;-45
2023/02/05 06:09:27;;;;;;;13.15;5.87;;;;;;;-4.02;78.39;102137.20;1831298;78;27530;-44
2023/02/05 06:11:53;;;;;;;13.85;5.95;;;;;;;-4.01;78.45;102143.30;1831259;78;25366;-45
2023/02/05 06:14:20;;;;;;;11.18;5.55;;;;;;;-4.02;78.52;102137.20;1831279;78;25380;-46
2023/02/05 06:16:46;;;;;;;13.10;5.53;;;;;;;-4.01;78.59;102144.63;1831243;78;25549;-48
2023/02/05 06:19:12;;;;;;;13.53;6.05;;;;;;;-4.00;78.65;102146.25;1831312;78;25530;-45
2023/02/05 06:21:38;;;;;;;13.48;5.37;;;;;;;-4.01;78.62;102146.77;1831408;78;27498;-45
2023/02/05 06:24:05;;;;;;;10.13;5.12;;;;;;;-4.02;78.61;102149.57;1831235;78;25564;-45
2023/02/05 06:26:32;;;;;;;11.70;5.55;;;;;;;-4.01;78.76;102157.84;1831342;78;25447;-45
2023/02/05 06:29:02;;;;;;;16.15;6.35;;;;;;;-4.00;78.72;102151.55;1831316;78;27594;-45
2023/02/05 06:31:26;;;;;;;11.05;5.25;;;;;;;-3.99;78.72;102157.17;1830861;78;25364;-46
2023/02/05 06:33:52;;;;;;;11.80;5.67;;;;;;;-4.00;78.72;102159.00;1831333;78;28088;-45
2023/02/05 06:36:18;;;;;;;13.10;5.95;;;;;;;-3.99;78.68;102166.42;1831253;78;25674;-45
2023/02/05 06:38:44;;;;;;;11.48;5.80;;;;;;;-4.00;78.69;102159.00;1831292;78;25530;-46
2023/02/05 06:41:10;;;;;;;13.93;6.08;;;;;;;-3.99;78.81;102164.59;1831260;78;26146;-46
2023/02/05 06:43:37;;;;;;;12.70;5.53;;;;;;;-3.99;78.88;102167.24;1831360;78;30372;-45
2023/02/05 06:46:04;;;;;;;13.18;5.78;;;;;;;-3.96;79.08;102164.27;1831317;78;27388;-44
2023/02/05 06:48:30;;;;;;;16.50;7.30;;;;;;;-3.95;78.94;102176.98;1831154;78;25567;-44
2023/02/05 06:50:56;;;;;;;11.57;6.00;;;;;;;-3.94;79.11;102174.17;1831245;78;25540;-47
2023/02/05 06:53:23;;;;;;;15.68;6.17;;;;;;;-3.91;79.13;102177.51;1801268;78;25630;-46
2023/02/05 06:55:49;;;;;;;11.85;6.30;;;;;;;-3.90;79.28;102172.02;1831294;78;25336;-44
2023/02/05 06:58:15;;;;;;;15.05;5.87;;;;;;;-3.86;79.33;102179.16;1801308;78;27251;-45
2023/02/05 07:00:42;;;;;;;11.97;5.80;;;;;;;-3.84;79.26;102179.30;1831190;78;25523;-46
2023/02/05 07:03:08;;;;;;;12.28;5.37;;;;;;;-3.81;79.35;102182.94;1830791;78;25558;-45
2023/02/05 07:05:34;;;;;;;17.42;7.10;;;;;;;-3.79;79.21;102187.56;1830036;78;25883;-44
2023/02/05 07:08:02;;;;;;;12.63;6.05;;;;;;;-3.76;79.36;102186.42;1831259;78;25568;-44
2023/02/05 07:10:29;;;;;;;14.07;6.95;;;;;;;-3.74;79.30;102183.61;1801878;78;27514;-44
2023/02/05 07:12:55;;;;;;;13.13;5.80;;;;;;;-3.71;79.42;102180.59;1831176;78;25839;-45
2023/02/05 07:15:22;;;;;;;11.90;5.75;;;;;;;-3.67;79.55;102181.94;1831290;78;25542;-45
2023/02/05 07:17:49;;;;;;;13.43;6.30;;;;;;;-3.64;79.56;102186.39;1831252;78;25598;-44
2023/02/05 07:20:17;;;;;;;16.82;7.22;;;;;;;-3.61;79.53;102191.83;1831273;78;25623;-45
2023/02/05 07:22:45;;;;;;;18.77;10.23;;;;;;;-3.55;79.61;102192.48;1831239;78;27485;-45
2023/02/05 07:25:12;;;;;;;19.57;8.47;;;;;;;-3.50;79.50;102199.42;1807961;78;25578;-45
2023/02/05 07:27:39;;;;;;;19.23;7.33;;;;;;;-3.45;79.60;102200.25;1803888;79;25613;-44
2023/02/05 07:30:07;;;;;;;14.07;6.53;;;;;;;-3.36;79.76;102208.48;1798640;79;26097;-44
2023/02/05 07:32:33;;;;;;;11.05;5.67;;;;;;;-3.31;79.57;102206.66;1798623;79;25394;-45
2023/02/05 07:34:59;;;;;;;14.07;6.22;;;;;;;-3.24;79.19;102210.27;1803916;79;27428;-45
2023/02/05 07:37:26;;;;;;;15.95;5.60;;;;;;;-3.20;79.26;102212.92;1798465;79;25374;-45
2023/02/05 07:39:52;;;;;;;11.18;5.60;;;;;;;-3.14;79.49;102209.58;1803972;79;25615;-45
2023/02/05 07:42:18;;;;;;;12.07;5.83;;;;;;;-3.08;79.35;102214.20;1798512;79;25541;-44
2023/02/05 07:44:45;;;;;;;10.15;5.55;;;;;;;-2.98;79.59;102211.84;1804044;79;25602;-45
2023/02/05 07:47:11;;;;;;;10.32;5.78;;;;;;;-2.84;79.45;102214.59;1798644;79;27407;-45
2023/02/05 07:49:38;;;;;;;9.95;4.92;;;;;;;-2.68;79.50;102218.98;1798486;79;25594;-46
2023/02/05 07:52:07;;;;;;;12.00;5.90;;;;;;;-2.34;81.33;102224.92;1798580;79;25467;-45
2023/02/05 07:54:34;;;;;;;15.53;7.42;;;;;;;-1.93;80.52;102218.81;1803905;79;25657;-46
2023/02/05 07:57:01;;;;;;;14.13;6.55;;;;;;;-1.63;80.56;102211.45;1798565;79;25583;-45
2023/02/05 07:59:29;;;;;;;14.43;6.37;;;;;;;-1.33;80.11;102205.64;1776742;79;27474;-46
2023/02/05 08:01:55;;;;;;;11.68;5.33;;;;;;;-1.00;80.34;102211.92;1798435;79;25409;-45
2023/02/05 08:04:21;;;;;;;8.93;5.08;;;;;;;-0.61;79.26;102210.77;1803623;79;25637;-46
2023/02/05 08:06:50;;;;;;;9.03;5.22;;;;;;;-0.28;79.49;102207.62;1803821;79;25574;-46
2023/02/05 08:09:16;;;;;;;8.83;4.42;;;;;;;0.01;78.49;102209.33;1798551;79;25586;-44
2023/02/05 08:11:42;;;;;;;9.45;5.17;;;;;;;0.44;78.59;102213.75;1796988;79;27431;-45
2023/02/05 08:14:09;;;;;;;12.13;6.50;;;;;;;0.79;77.71;102213.78;1803802;79;25474;-45
2023/02/05 08:16:35;;;;;;;12.73;6.35;;;;;;;1.05;76.79;102213.91;1803802;79;25515;-44
2023/02/05 08:19:01;;;;;;;10.63;5.67;;;;;;;1.38;75.26;102213.72;1798434;79;25527;-44
2023/02/05 08:21:29;;;;;;;11.25;6.28;;;;;;;1.85;76.90;102222.14;1798546;79;25185;-45
2023/02/05 08:23:57;;;;;;;9.18;5.72;;;;;;;2.43;74.97;102210.88;1803522;79;27558;-44
2023/02/05 08:26:23;;;;;;;10.70;6.05;;;;;;;3.08;76.02;102220.80;1803312;79;25597;-45
2023/02/05 08:28:54;;;;;;;10.38;5.78;;;;;;;3.77;74.26;102241.66;1766937;81;25429;-47
2023/02/05 08:31:20;;;;;;;11.97;5.75;;;;;;;4.25;72.12;102248.61;1800338;79;25482;-46
2023/02/05 08:33:49;;;;;;;11.65;6.37;;;;;;;4.76;71.42;102247.24;1767079;81;25431;-45
2023/02/05 08:36:15;;;;;;;12.47;5.92;;;;;;;5.18;69.20;102251.44;1799278;79;28139;-45
2023/02/05 08:38:43;;;;;;;9.30;5.97;;;;;;;5.33;67.08;102247.00;1800190;79;25425;-45
2023/02/05 08:41:14;;;;;;;11.93;6.97;;;;;;;5.69;66.98;102252.84;1803262;79;25450;-46
2023/02/05 08:43:46;;;;;;;12.18;6.47;;;;;;;6.13;66.36;102256.14;1736451;82;25721;-45
2023/02/05 08:46:18;;;;;;;9.40;5.53;;;;;;;6.38;64.86;102256.99;1768573;81;25546;-46
2023/02/05 08:48:48;;;;;;;9.80;5.37;;;;;;;6.65;63.81;102258.16;1771592;81;28910;-47
2023/02/05 08:51:18;;;;;;;9.00;5.43;;;;;;;6.82;63.79;102255.58;1736586;82;25903;-47
2023/02/05 08:53:46;;;;;;;8.60;5.55;;;;;;;7.22;63.15;102252.12;1768514;81;25449;-47
2023/02/05 08:56:15;;;;;;;10.95;6.10;;;;;;;7.16;60.59;102258.45;1736389;82;25583;-53
2023/02/05 08:58:44;;;;;;;9.48;5.58;;;;;;;6.61;59.02;102260.23;1768645;81;25633;-45
2023/02/05 09:01:16;;;;;;;8.20;5.45;;;;;;;6.16;58.41;102262.41;1768592;81;27609;-49
2023/02/05 09:03:46;;;;;;;9.50;5.08;;;;;;;5.65;57.69;102261.56;1768512;81;25618;-46
2023/02/05 09:06:16;;;;;;;9.98;6.08;;;;;;;5.38;58.17;102257.37;1768574;81;25696;-46
2023/02/05 09:08:44;;;;;;;10.95;6.20;;;;;;;4.87;57.37;102263.95;1771602;81;26614;-45
2023/02/05 09:11:12;;;;;;;10.10;6.60;;;;;;;4.24;57.25;102275.62;1736638;82;25612;-47
2023/02/05 09:13:42;;;;;;;11.03;6.12;;;;;;;3.74;57.75;102275.83;1768677;81;27505;-45
2023/02/05 09:16:12;;;;;;;9.03;5.30;;;;;;;3.31;57.74;102281.80;1736553;82;25610;-46
2023/02/05 09:18:38;;;;;;;12.10;6.12;;;;;;;2.95;58.36;102286.34;1705648;82;25469;-46
2023/02/05 09:21:11;;;;;;;10.80;5.67;;;;;;;2.52;58.82;102296.97;1736541;82;27740;-45
2023/02/05 09:23:41;;;;;;;11.35;5.75;;;;;;;2.07;58.60;102300.72;1771627;81;25656;-45
2023/02/05 09:26:08;;;;;;;9.33;5.75;;;;;;;1.73;59.58;102307.81;1728953;82;27654;-44
2023/02/05 09:28:36;;;;;;;9.58;5.50;;;;;;;1.41;60.12;102304.00;1785980;80;25612;-44
2023/02/05 09:31:11;;;;;;;13.93;5.97;;;;;;;1.09;59.98;102310.28;1785942;80;25932;-45
2023/02/05 09:33:37;;;;;;;10.35;5.58;;;;;;;0.85;60.65;102308.91;1785974;80;25601;-45
2023/02/05 09:36:12;;;;;;;9.75;4.95;;;;;;;0.59;60.47;102321.52;1785994;80;25403;-45
2023/02/05 09:38:40;;;;;;;8.60;4.67;;;;;;;0.38;60.88;102323.70;1763095;81;27470;-45
2023/02/05 09:41:15;;;;;;;8.80;4.75;;;;;;;0.17;61.18;102322.66;1764538;81;25599;-45
2023/02/05 09:44:17;;;;;;;9.93;4.83;;;;;;;-0.05;61.14;102322.67;1763362;81;25708;-43
2023/02/05 09:47:07;;;;;;;8.60;4.30;;;;;;;-0.22;61.39;102323.40;1764641;81;26536;-43
2023/02/05 09:50:00;;;;;;;6.53;3.77;;;;;;;-0.39;61.98;102320.12;1763737;81;25392;-43
2023/02/05 09:52:37;;;;;;;4.92;3.42;;;;;;;-0.53;62.24;102318.30;1763994;81;27494;-43
2023/02/05 09:55:23;;;;;;;5.30;3.50;;;;;;;-0.67;62.51;102317.30;1732558;82;25201;-44
2023/02/05 09:57:55;;;;;;;7.97;4.00;;;;;;;-0.79;62.88;102310.81;1764627;81;25384;-45
2023/02/05 10:00:44;;;;;;;7.62;3.92;;;;;;;-0.88;63.18;102314.58;1764711;81;25621;-45
2023/02/05 10:03:16;;;;;;;7.72;3.58;;;;;;;-0.95;63.12;102311.83;1732794;82;25551;-44
2023/02/05 10:06:29;;;;;;;6.50;3.75;;;;;;;-1.04;63.52;102320.39;1784700;80;29777;-48
2023/02/05 10:09:23;;;;;;;7.62;4.03;;;;;;;-1.08;63.74;102327.05;1785999;80;25490;-44
2023/02/05 10:12:08;;;;;;;4.67;2.92;;;;;;;-1.12;63.81;102325.78;1786194;80;25616;-45
2023/02/05 10:14:57;;;;;;;6.37;3.40;;;;;;;-1.17;63.81;102325.50;1740490;82;25533;-46
2023/02/05 10:17:37;;;;;;;5.53;3.12;;;;;;;-1.21;64.00;102328.17;1740827;82;25602;-46
2023/02/05 10:20:39;;;;;;;6.47;3.25;;;;;;;-1.27;64.00;102321.76;1764172;81;29691;-46
2023/02/05 10:23:29;;;;;;;6.42;3.25;;;;;;;-1.32;64.34;102325.45;1764113;81;25481;-43
2023/02/05 10:26:09;;;;;;;5.87;3.30;;;;;;;-1.36;64.47;102328.98;1755924;81;25518;-44
2023/02/05 10:29:02;;;;;;;5.33;3.60;;;;;;;-1.37;64.43;102329.97;1756046;81;25494;-45
2023/02/05 10:31:45;;;;;;;8.23;4.08;;;;;;;-1.39;64.55;102328.52;1756028;81;25515;-43
2023/02/05 10:34:22;;;;;;;8.85;3.90;;;;;;;-1.40;64.86;102317.55;1756152;81;27555;-44
2023/02/05 10:36:52;;;;;;;8.80;4.12;;;;;;;-1.40;65.02;102310.92;1756069;81;25546;-46
2023/02/05 10:39:24;;;;;;;7.22;3.90;;;;;;;-1.41;65.01;102315.41;1756055;81;25630;-45
2023/02/05 10:42:07;;;;;;;6.78;4.08;;;;;;;-1.42;65.22;102320.39;1756150;81;25514;-43
2023/02/05 10:44:42;;;;;;;6.75;3.92;;;;;;;-1.39;65.53;102314.73;1695355;84;25299;-43
2023/02/05 10:47:45;;;;;;;8.18;3.67;;;;;;;-1.29;65.61;102305.67;1695420;84;27483;-43
2023/02/05 10:50:38;;;;;;;6.35;3.58;;;;;;;-1.22;65.65;102312.75;1693021;84;25734;-45
2023/02/05 10:53:07;;;;;;;5.50;3.02;;;;;;;-1.18;65.42;102310.55;1651774;86;25673;-45
2023/02/05 10:55:34;;;;;;;7.15;3.33;;;;;;;-1.16;65.15;102304.06;1653130;86;26042;-46
2023/02/05 10:58:05;;;;;;;7.30;3.80;;;;;;;-1.11;64.86;102303.50;1653196;86;25673;-44
2023/02/05 11:00:32;;;;;;;11.83;5.40;;;;;;;-1.11;65.22;102298.19;1631066;86;28036;-45
2023/02/05 11:02:59;;;;;;;9.45;4.72;;;;;;;-1.06;65.36;102299.80;1660104;85;25522;-47
2023/02/05 11:05:36;;;;;;;10.03;5.65;;;;;;;-0.98;65.48;102297.58;1702738;84;25645;-44
2023/02/05 11:08:03;;;;;;;7.90;4.42;;;;;;;-0.92;65.19;102289.36;1702587;84;25650;-43
2023/02/05 11:10:34;;;;;;;8.23;4.30;;;;;;;-0.91;64.97;102285.71;1702723;84;25685;-43
2023/02/05 11:13:06;;;;;;;8.65;4.53;;;;;;;-0.89;65.57;102291.14;1702710;84;27570;-44
2023/02/05 11:15:33;;;;;;;10.53;4.85;;;;;;;-0.80;65.55;102284.75;1699938;84;25685;-45
2023/02/05 11:18:04;;;;;;;7.97;4.28;;;;;;;-0.71;65.19;102289.97;1702679;84;25630;-44
2023/02/05 11:20:37;;;;;;;7.05;3.90;;;;;;;-0.70;65.06;102288.95;1717004;79;25649;-45
2023/02/05 11:23:18;;;;;;;5.50;3.47;;;;;;;-0.67;64.83;102280.09;1797887;79;25458;-44
2023/02/05 11:25:58;;;;;;;6.67;3.45;;;;;;;-0.62;65.03;102276.89;1785804;79;27440;-45
2023/02/05 11:28:31;;;;;;;9.38;4.00;;;;;;;-0.59;65.08;102267.22;1772246;81;25705;-46
2023/02/05 11:31:19;;;;;;;7.03;4.05;;;;;;;-0.52;64.84;102264.64;1772234;81;25441;-46
2023/02/05 11:33:48;;;;;;;7.87;4.25;;;;;;;-0.46;64.64;102276.69;1767069;81;25613;-45
2023/02/05 11:36:24;;;;;;;8.65;3.98;;;;;;;-0.42;64.56;102265.98;1772281;81;25579;-44
2023/02/05 11:38:55;;;;;;;9.58;4.55;;;;;;;-0.34;65.14;102263.73;1772287;81;27555;-45
2023/02/05 11:41:50;;;;;;;6.72;4.30;;;;;;;-0.20;65.47;102272.16;1740744;81;25647;-45
2023/02/05 11:44:31;;;;;;;6.62;4.05;;;;;;;-0.15;64.56;102272.09;1772256;81;25616;-43
2023/02/05 11:47:01;;;;;;;8.75;4.62;;;;;;;-0.21;64.38;102270.50;1767026;81;25605;-44
2023/02/05 11:49:35;;;;;;;8.75;4.03;;;;;;;-0.23;64.34;102275.19;1745870;81;25400;-45
2023/02/05 11:52:08;;;;;;;10.03;4.62;;;;;;;-0.22;64.31;102278.70;1766630;81;27406;-45
2023/02/05 11:54:36;;;;;;;9.35;4.62;;;;;;;-0.23;64.48;102273.05;1767008;81;25736;-44
2023/02/05 11:57:20;;;;;;;10.53;5.47;;;;;;;-0.21;64.40;102274.48;1772256;81;25602;-46